Time;durP1;ratioP1;P1;durP2;ratioP2;P2;SDS_P1;SDS_P2;PMS_P1;PMS_P2;Temp;Humidity;BMP_temperature;BMP_pressure;BME280_temperature;BME280_humidity;BME280_pressure;Samples;Min_cycle;Max_cycle;Signal;HPM_P1;HPM_P2
2022/05/14 00:00:59;;;;;;;7.15;5.88;;;;;;;12.37;67.69;93425.09;5111576;28;20039;-49
2022/05/14 00:03:26;;;;;;;8.35;6.20;;;;;;;12.31;67.94;93427.34;5111211;28;20101;-47
2022/05/14 00:05:55;;;;;;;6.43;5.53;;;;;;;12.34;67.44;93423.47;5111198;28;20088;-46
2022/05/14 00:08:22;;;;;;;6.63;5.93;;;;;;;12.30;67.85;93421.06;5111577;28;20031;-46
2022/05/14 00:13:32;;;;;;;7.07;6.38;;;;;;;11.80;68.50;93397.31;5111217;28;20510;-47
2022/05/14 00:15:58;;;;;;;10.18;6.15;;;;;;;11.72;69.41;93413.91;5111306;28;20035;-46
2022/05/14 00:18:23;;;;;;;8.50;6.18;;;;;;;11.89;69.21;93418.84;5111311;28;20027;-49
2022/05/14 00:20:50;;;;;;;10.48;7.53;;;;;;;12.04;68.62;93411.22;5111279;28;20027;-46
2022/05/14 00:23:15;;;;;;;11.25;7.93;;;;;;;11.93;68.22;93405.38;5110952;28;20019;-49
2022/05/14 00:25:42;;;;;;;12.50;9.63;;;;;;;11.72;68.56;93402.84;5110949;28;20027;-45
2022/05/14 00:28:08;;;;;;;11.15;8.27;;;;;;;11.54;69.13;93395.69;5110821;28;20496;-49
2022/05/14 00:30:34;;;;;;;12.65;9.50;;;;;;;11.37;69.68;93390.72;5110916;28;20031;-49
2022/05/14 00:32:59;;;;;;;8.55;6.65;;;;;;;11.34;69.83;93396.63;5110716;28;20028;-50
2022/05/14 00:35:25;;;;;;;8.73;5.60;;;;;;;11.22;69.75;93376.19;5111073;28;20110;-46
2022/05/14 00:37:51;;;;;;;7.43;6.60;;;;;;;11.33;69.96;93398.66;5111156;28;20112;-48
2022/05/14 00:40:24;;;;;;;7.63;6.00;;;;;;;11.43;70.21;93387.78;5110718;28;20038;-49
2022/05/14 00:42:49;;;;;;;6.47;5.88;;;;;;;11.41;70.27;93387.59;5111015;28;20039;-47
2022/05/14 00:45:16;;;;;;;7.95;5.65;;;;;;;11.16;70.73;93389.47;5110593;28;20420;-47
2022/05/14 00:47:45;;;;;;;6.38;5.78;;;;;;;11.14;70.52;93390.03;5110623;28;20111;-47
2022/05/14 00:50:40;;;;;;;6.60;5.90;;;;;;;11.18;70.50;93395.91;5109540;28;20028;-48
2022/05/14 00:53:11;;;;;;;6.15;5.55;;;;;;;11.16;70.58;93386.69;5109623;28;20060;-47
2022/05/14 00:55:37;;;;;;;7.85;5.75;;;;;;;11.03;71.27;93381.34;5110864;28;20145;-46
2022/05/14 00:58:04;;;;;;;8.20;6.25;;;;;;;11.21;71.23;93388.53;5110857;28;20416;-46
2022/05/14 01:00:30;;;;;;;8.43;6.50;;;;;;;10.78;71.71;93361.13;5113922;28;20053;-48
2022/05/14 01:02:55;;;;;;;8.43;6.22;;;;;;;10.81;71.04;93391.13;5115003;28;20071;-48
2022/05/14 01:05:21;;;;;;;6.95;5.78;;;;;;;10.73;71.02;93387.63;5115077;28;20496;-46
2022/05/14 01:07:51;;;;;;;6.35;5.50;;;;;;;10.86;71.21;93390.22;5113494;28;20408;-45
2022/05/14 01:10:18;;;;;;;6.70;5.88;;;;;;;11.04;70.46;93391.13;5114903;28;20028;-47
2022/05/14 01:12:51;;;;;;;10.73;6.85;;;;;;;11.09;70.96;93387.44;5114515;28;20486;-46
2022/05/14 01:15:21;;;;;;;16.17;10.30;;;;;;;10.89;70.83;93386.34;5114889;28;20099;-45
2022/05/14 01:17:47;;;;;;;8.60;6.88;;;;;;;11.04;70.28;93386.34;5114468;28;20572;-45
2022/05/14 01:20:14;;;;;;;8.43;6.60;;;;;;;10.82;70.31;93381.56;5114838;27;20110;-46
2022/05/14 01:22:54;;;;;;;11.52;6.82;;;;;;;10.79;70.43;93379.16;5114714;28;20027;-46
2022/05/14 01:28:28;;;;;;;7.80;7.00;;;;;;;10.89;70.54;93374.56;5114635;28;20415;-45
2022/05/14 01:30:59;;;;;;;8.18;6.55;;;;;;;10.74;70.92;93377.31;5114524;28;20098;-48
2022/05/14 01:33:25;;;;;;;8.07;6.85;;;;;;;10.68;70.97;93374.00;5114114;28;20035;-45
2022/05/14 01:35:50;;;;;;;9.60;6.38;;;;;;;10.74;70.59;93374.56;5112911;28;20028;-45
2022/05/14 01:38:17;;;;;;;7.40;6.60;;;;;;;10.64;71.20;93369.56;5114406;28;20032;-47
2022/05/14 01:40:43;;;;;;;6.72;6.03;;;;;;;10.55;70.54;93377.66;5114334;28;20077;-47
2022/05/14 01:43:09;;;;;;;9.30;6.30;;;;;;;10.54;70.05;93370.69;5114278;28;20439;-48
2022/05/14 01:45:34;;;;;;;9.70;6.65;;;;;;;10.71;70.05;93372.88;5114273;28;20054;-47
2022/05/14 01:48:01;;;;;;;6.28;5.25;;;;;;;10.68;69.89;93368.47;5114185;28;20472;-47
2022/05/14 01:50:26;;;;;;;9.95;6.57;;;;;;;10.73;69.85;93367.56;5113855;28;20031;-46
2022/05/14 01:52:52;;;;;;;8.05;6.63;;;;;;;10.61;69.80;93362.38;5094855;28;20531;-47
2022/05/14 01:55:18;;;;;;;7.57;5.88;;;;;;;10.58;69.08;93371.78;5092789;28;20050;-47
2022/05/14 01:57:43;;;;;;;7.30;6.38;;;;;;;10.58;69.37;93368.28;5093670;28;20028;-45
2022/05/14 02:00:12;;;;;;;9.05;6.90;;;;;;;10.66;69.34;93363.50;5093556;28;20028;-44
2022/05/14 02:02:37;;;;;;;9.47;7.63;;;;;;;10.39;70.56;93363.13;5093237;28;20031;-46
2022/05/14 02:05:03;;;;;;;10.38;7.45;;;;;;;10.36;70.07;93350.41;5093510;28;20024;-45
2022/05/14 02:07:29;;;;;;;9.77;7.50;;;;;;;10.31;70.36;93351.31;5093463;28;20051;-44
2022/05/14 02:09:54;;;;;;;9.15;6.75;;;;;;;10.39;70.76;93351.34;5093349;28;20028;-44
2022/05/14 02:12:20;;;;;;;8.30;6.60;;;;;;;10.14;70.81;93350.34;5092632;28;20040;-46
2022/05/14 02:14:45;;;;;;;10.20;6.85;;;;;;;10.33;70.41;93348.72;5093212;28;20505;-45
2022/05/14 02:17:12;;;;;;;9.32;6.85;;;;;;;9.98;71.04;93341.28;5093020;28;20394;-46
2022/05/14 02:19:38;;;;;;;7.70;6.45;;;;;;;9.94;71.17;93347.16;5093175;28;20020;-44
2022/05/14 02:22:05;;;;;;;8.52;6.35;;;;;;;9.79;70.99;93349.09;5092861;28;20050;-46
2022/05/14 02:24:31;;;;;;;6.88;5.90;;;;;;;9.82;71.20;93359.06;5093130;28;20492;-46
2022/05/14 02:26:57;;;;;;;7.45;6.57;;;;;;;9.79;71.23;93358.13;5092728;28;20547;-45
2022/05/14 02:29:22;;;;;;;9.63;6.60;;;;;;;9.99;70.57;93362.06;5093089;28;20023;-47
2022/05/14 02:31:48;;;;;;;6.47;5.88;;;;;;;10.01;70.90;93362.25;5092967;28;20024;-48
2022/05/14 02:34:13;;;;;;;9.32;6.10;;;;;;;9.94;71.30;93360.19;5092524;28;20477;-46
2022/05/14 02:36:39;;;;;;;7.13;6.35;;;;;;;9.94;71.33;93362.94;5092835;28;20138;-47
2022/05/14 02:39:04;;;;;;;9.65;6.47;;;;;;;9.91;70.97;93362.03;5092880;28;20602;-48
2022/05/14 02:41:30;;;;;;;7.22;5.97;;;;;;;9.77;70.89;93373.72;5092810;28;20020;-46
2022/05/14 02:43:55;;;;;;;8.93;7.03;;;;;;;9.82;71.42;93373.59;5092407;28;20078;-45
2022/05/14 02:46:21;;;;;;;7.45;6.28;;;;;;;9.94;70.78;93365.72;5092439;28;20078;-45
2022/05/14 02:48:46;;;;;;;9.07;6.82;;;;;;;10.01;70.71;93367.00;5106630;28;20030;-47
2022/05/14 02:51:13;;;;;;;9.88;6.60;;;;;;;10.00;71.60;93365.56;5109248;28;20046;-46
2022/05/14 02:53:38;;;;;;;11.15;7.00;;;;;;;9.86;71.72;93362.94;5090759;28;20048;-50
2022/05/14 02:56:04;;;;;;;9.23;6.30;;;;;;;9.76;72.10;93350.22;5092600;28;20028;-45
2022/05/14 03:01:13;;;;;;;8.75;6.80;;;;;;;9.93;70.16;93367.00;5092513;28;20117;-46
2022/05/14 03:03:39;;;;;;;6.38;5.78;;;;;;;9.85;69.63;93369.00;5091308;28;20036;-48
2022/05/14 03:06:04;;;;;;;6.40;5.75;;;;;;;9.45;70.72;93345.84;5091628;28;20024;-49
2022/05/14 03:08:30;;;;;;;8.52;7.15;;;;;;;9.39;71.54;93370.06;5092384;28;20040;-47
2022/05/14 03:10:55;;;;;;;9.10;7.53;;;;;;;9.68;71.41;93374.28;5091894;28;20027;-47
2022/05/14 03:13:21;;;;;;;8.23;7.35;;;;;;;9.78;70.74;93350.41;5091911;28;20101;-49
2022/05/14 03:15:46;;;;;;;9.13;8.10;;;;;;;10.08;70.01;93372.56;5091782;28;20019;-46
2022/05/14 03:18:11;;;;;;;10.63;8.25;;;;;;;10.13;69.99;93374.47;5095672;28;20096;-46
2022/05/14 03:20:37;;;;;;;8.90;8.00;;;;;;;10.14;70.64;93380.69;5112434;28;20028;-47
2022/05/14 03:23:03;;;;;;;10.45;8.10;;;;;;;9.99;70.80;93373.09;5111291;28;20496;-47
2022/05/14 03:25:28;;;;;;;9.60;8.02;;;;;;;10.10;70.63;93372.00;5112322;28;20423;-46
2022/05/14 03:27:54;;;;;;;10.55;8.27;;;;;;;9.99;71.92;93375.09;5111952;28;20038;-45
2022/05/14 03:30:19;;;;;;;9.75;8.23;;;;;;;10.04;71.38;93371.44;5112209;28;20059;-47
2022/05/14 03:32:46;;;;;;;8.50;7.68;;;;;;;9.92;71.30;93371.03;5111894;28;20118;-45
2022/05/14 03:35:11;;;;;;;15.77;10.68;;;;;;;9.83;71.30;93363.31;5111816;27;20515;-48
2022/05/14 03:37:37;;;;;;;23.90;8.38;;;;;;;9.69;70.85;93337.88;5111813;28;20103;-46
2022/05/14 03:40:03;;;;;;;14.73;11.85;;;;;;;9.73;70.75;93343.78;5111775;28;20020;-45
2022/05/14 03:42:30;;;;;;;27.50;19.35;;;;;;;9.95;70.15;93369.94;5111648;28;20032;-46
2022/05/14 03:44:56;;;;;;;25.83;18.83;;;;;;;10.00;71.08;93377.34;5111258;28;20023;-46
2022/05/14 03:47:21;;;;;;;23.38;16.92;;;;;;;9.91;70.68;93378.59;5111950;28;20012;-47
2022/05/14 03:49:46;;;;;;;22.13;15.57;;;;;;;9.96;70.89;93379.72;5111819;28;20020;-46
2022/05/14 03:52:12;;;;;;;14.60;10.13;;;;;;;9.71;71.93;93386.94;5099560;28;20035;-45
2022/05/14 03:54:38;;;;;;;13.73;9.75;;;;;;;9.85;72.56;93385.56;5097974;28;20093;-45
2022/05/14 03:57:07;;;;;;;10.75;8.38;;;;;;;9.85;72.80;93391.06;5111757;28;20034;-45
2022/05/14 03:59:33;;;;;;;8.75;7.85;;;;;;;9.89;72.26;93392.19;5105465;28;20102;-45
2022/05/14 04:02:00;;;;;;;7.85;6.97;;;;;;;9.90;72.13;93363.31;5101275;28;20422;-47
2022/05/14 04:04:26;;;;;;;8.02;6.57;;;;;;;10.03;72.38;93392.06;5111252;28;20016;-47
2022/05/14 04:06:53;;;;;;;8.18;7.30;;;;;;;9.95;72.32;93378.22;5111515;28;20020;-46
2022/05/14 04:09:19;;;;;;;8.75;7.00;;;;;;;10.00;73.15;93380.09;5104139;28;20036;-49
2022/05/14 04:11:45;;;;;;;11.70;6.45;;;;;;;10.41;71.82;93399.19;5090742;28;20490;-49
2022/05/14 04:14:11;;;;;;;13.05;7.35;;;;;;;10.59;70.02;93402.88;5092645;28;20073;-47
2022/05/14 04:16:38;;;;;;;9.35;7.70;;;;;;;10.61;70.05;93395.50;5108260;28;20020;-46
2022/05/14 04:19:04;;;;;;;10.73;7.82;;;;;;;10.87;69.83;93396.47;5111373;28;20027;-45
2022/05/14 04:21:29;;;;;;;11.30;7.93;;;;;;;11.11;70.53;93404.94;5108624;28;20073;-46
2022/05/14 04:23:55;;;;;;;13.13;7.80;;;;;;;11.22;70.00;93404.56;5101452;28;20020;-47
2022/05/14 04:26:22;;;;;;;12.73;8.32;;;;;;;11.38;70.38;93403.25;5110936;28;20024;-46
2022/05/14 04:28:48;;;;;;;11.02;8.48;;;;;;;11.56;70.62;93420.00;5110827;28;20094;-46
2022/05/14 04:31:13;;;;;;;14.70;9.50;;;;;;;11.66;69.79;93402.28;5110893;28;20123;-46
2022/05/14 04:33:39;;;;;;;11.32;8.80;;;;;;;11.77;69.21;93415.75;5110792;28;20110;-48
2022/05/14 04:36:04;;;;;;;12.77;9.25;;;;;;;11.90;70.26;93415.53;5110669;28;20031;-45
2022/05/14 04:38:30;;;;;;;12.02;9.00;;;;;;;12.01;69.85;93423.41;5110801;28;20016;-46
2022/05/14 04:40:55;;;;;;;8.77;7.88;;;;;;;12.17;70.18;93421.34;5099129;28;20036;-49
2022/05/14 04:43:21;;;;;;;9.60;8.18;;;;;;;12.27;70.02;93427.00;5090661;28;20008;-49
2022/05/14 04:45:46;;;;;;;9.18;7.57;;;;;;;12.30;70.09;93445.97;5090346;28;20024;-45
2022/05/14 04:48:12;;;;;;;12.00;9.43;;;;;;;12.33;70.25;93438.59;5090327;28;20016;-49
2022/05/14 04:50:39;;;;;;;23.77;18.50;;;;;;;12.26;70.31;93433.84;5090315;28;20020;-49
2022/05/14 04:53:04;;;;;;;30.70;19.20;;;;;;;12.21;70.60;93437.56;5089907;28;20051;-50
2022/05/14 04:55:31;;;;;;;18.30;14.85;;;;;;;11.92;71.84;93412.19;5090395;28;20463;-47
2022/05/14 04:57:59;;;;;;;18.10;12.63;;;;;;;12.08;72.37;93435.75;5090513;28;20027;-45
2022/05/14 05:00:24;;;;;;;16.35;11.43;;;;;;;12.06;73.32;93430.75;5090230;28;20062;-45
2022/05/14 05:05:34;;;;;;;16.40;11.73;;;;;;;12.22;73.42;93450.06;5090576;28;20078;-42
2022/05/14 05:08:00;;;;;;;15.30;12.13;;;;;;;12.26;73.06;93448.41;5090135;28;20032;-45
2022/05/14 05:10:26;;;;;;;13.45;11.38;;;;;;;12.32;73.02;93453.75;5090127;28;20024;-47
2022/05/14 05:12:52;;;;;;;13.73;11.50;;;;;;;12.25;72.81;93455.25;5090269;28;20027;-45
2022/05/14 05:15:17;;;;;;;14.45;10.55;;;;;;;12.36;72.96;93463.16;5090088;28;20050;-46
2022/05/14 05:17:43;;;;;;;14.25;12.02;;;;;;;12.27;72.26;93457.44;5090400;28;20085;-45
2022/05/14 05:20:09;;;;;;;27.85;14.20;;;;;;;12.34;71.79;93453.94;5090016;28;20028;-48
2022/05/14 05:22:37;;;;;;;16.73;11.68;;;;;;;12.51;71.45;93463.06;5103367;28;20099;-46
2022/05/14 05:25:07;;;;;;;20.10;13.13;;;;;;;12.52;71.32;93453.47;5109251;28;20028;-47
2022/05/14 05:27:33;;;;;;;18.02;14.32;;;;;;;12.46;72.08;93460.50;5108303;28;20085;-46
2022/05/14 05:29:58;;;;;;;16.10;13.60;;;;;;;12.40;73.87;93449.66;5107980;28;20039;-47
2022/05/14 05:32:24;;;;;;;17.42;12.63;;;;;;;12.36;75.08;93445.78;5107734;28;20027;-48
2022/05/14 05:34:49;;;;;;;18.88;14.23;;;;;;;12.31;76.33;93446.72;5107939;28;20024;-48
2022/05/14 05:37:16;;;;;;;22.83;13.73;;;;;;;12.33;77.16;93453.19;5107883;28;20030;-52
2022/05/14 05:39:41;;;;;;;20.83;14.80;;;;;;;12.21;77.62;93452.13;5108298;28;20046;-48
2022/05/14 05:42:07;;;;;;;18.83;14.82;;;;;;;11.97;78.02;93456.28;5108592;28;20028;-49
2022/05/14 05:44:33;;;;;;;16.67;13.63;;;;;;;11.89;78.64;93466.59;5108456;28;20023;-48
2022/05/14 05:46:58;;;;;;;17.83;13.10;;;;;;;11.87;79.40;93469.19;5110041;28;20106;-54
2022/05/14 05:49:24;;;;;;;19.60;15.18;;;;;;;12.00;80.37;93471.75;5111598;28;20535;-49
2022/05/14 05:51:49;;;;;;;22.00;15.57;;;;;;;12.09;81.12;93468.41;5101796;28;20039;-49
2022/05/14 05:56:59;;;;;;;24.02;17.17;;;;;;;12.18;82.30;93467.81;5091387;28;20051;-53
2022/05/14 05:59:28;;;;;;;16.33;13.60;;;;;;;12.23;82.27;93460.63;5091067;28;20075;-52
2022/05/14 06:01:54;;;;;;;19.90;12.55;;;;;;;11.96;81.50;93467.88;5105907;28;20675;-54
2022/05/14 06:04:20;;;;;;;17.40;13.65;;;;;;;12.13;80.40;93479.09;5111710;28;20028;-53
2022/05/14 06:06:46;;;;;;;16.00;12.57;;;;;;;12.21;80.82;93468.75;5110674;28;20027;-51
2022/05/14 06:09:14;;;;;;;18.63;13.10;;;;;;;12.13;81.16;93485.34;5105867;28;20495;-50
2022/05/14 06:24:24;;;;;;;;;;;;;;;;;;;;;
2022/05/14 06:27:46;;;;;;;;;;;;;;;;;;;;;
2022/05/14 06:31:20;;;;;;;;;;;;;;;;;;;;;
2022/05/14 06:34:27;;;;;;;;;;;;;;;;;;;;;
2022/05/14 06:37:42;;;;;;;;;;;;;;;;;;;;;
2022/05/14 06:43:40;;;;;;;;;;;;;;;12.72;82.15;93504.34;5074917;28;20428;-52
2022/05/14 06:46:13;;;;;;;14.07;12.43;;;;;;;12.76;83.35;93513.00;5087667;28;19908;-52
2022/05/14 06:49:05;;;;;;;47.85;25.73;;;;;;;12.57;83.44;93494.06;5089876;28;20035;-49
2022/05/14 06:51:49;;;;;;;24.30;18.60;;;;;;;12.64;82.74;93512.69;5088536;28;20032;-52
2022/05/14 06:54:37;;;;;;;25.15;20.20;;;;;;;12.56;83.29;93508.47;5089734;28;20118;-54
2022/05/14 06:57:32;;;;;;;27.98;20.17;;;;;;;12.69;84.35;93516.56;5089144;28;20043;-51
2022/05/14 07:00:41;;;;;;;32.33;21.10;;;;;;;12.74;84.14;93502.47;5106704;28;20458;-49
2022/05/14 07:08:36;;;;;;;328.10;143.15;;;;;;;13.21;82.96;93514.81;5087041;28;20089;-52
2022/05/14 07:11:02;;;;;;;120.05;59.58;;;;;;;13.27;82.88;93518.09;5086933;28;20024;-50
2022/05/14 07:13:28;;;;;;;39.35;24.45;;;;;;;13.31;81.34;93505.31;5086834;28;20390;-50
2022/05/14 07:15:54;;;;;;;24.27;15.48;;;;;;;13.54;80.64;93519.75;5086544;28;20020;-49
2022/05/14 07:18:19;;;;;;;14.98;12.88;;;;;;;13.62;80.32;93517.63;5086783;28;20465;-49
2022/05/14 07:20:45;;;;;;;18.05;13.35;;;;;;;13.75;79.77;93526.97;5091444;28;20030;-51
2022/05/14 07:23:10;;;;;;;17.10;11.88;;;;;;;13.82;79.92;93531.75;5103493;28;20048;-54
2022/05/14 07:25:36;;;;;;;14.50;9.88;;;;;;;13.94;79.50;93532.72;5093424;28;20480;-54
2022/05/14 07:28:01;;;;;;;15.82;11.27;;;;;;;14.01;79.84;93529.88;5093144;28;20031;-50
2022/05/14 07:30:27;;;;;;;12.18;10.02;;;;;;;14.06;79.50;93519.84;5093047;28;20032;-51
2022/05/14 07:32:52;;;;;;;13.30;10.30;;;;;;;14.18;78.81;93526.41;5092962;28;20028;-49
2022/05/14 07:35:18;;;;;;;15.85;12.07;;;;;;;14.28;77.59;93527.22;5093277;28;20034;-51
2022/05/14 07:37:47;;;;;;;17.75;9.73;;;;;;;14.27;76.75;93511.88;5092942;28;20020;-53
2022/05/14 07:40:19;;;;;;;13.48;10.20;;;;;;;14.58;76.81;93526.91;5092482;28;20028;-51
2022/05/14 07:42:51;;;;;;;15.23;9.73;;;;;;;14.60;77.38;93529.84;5073934;28;20488;-50
2022/05/14 07:45:22;;;;;;;11.15;8.80;;;;;;;14.65;77.21;93545.56;5074994;28;20028;-49
2022/05/14 07:47:48;;;;;;;15.20;9.55;;;;;;;14.74;77.72;93533.03;5075134;28;20137;-48
2022/05/14 07:50:14;;;;;;;14.60;8.15;;;;;;;14.80;75.85;93539.06;5092626;28;20036;-53
2022/05/14 07:52:40;;;;;;;25.90;16.77;;;;;;;14.79;75.31;93534.84;5092904;28;20081;-50
2022/05/14 07:55:06;;;;;;;21.33;18.63;;;;;;;14.84;77.38;93531.78;5074485;28;20080;-49
2022/05/14 07:57:32;;;;;;;15.68;13.75;;;;;;;14.94;78.03;93537.44;5092555;28;20104;-49
2022/05/14 07:59:57;;;;;;;15.95;13.82;;;;;;;15.03;77.83;93547.84;5091593;28;20492;-52
2022/05/14 08:02:26;;;;;;;21.15;14.77;;;;;;;15.11;77.53;93540.91;5091261;28;20027;-51
2022/05/14 08:04:52;;;;;;;19.73;16.77;;;;;;;15.23;76.40;93537.59;5073099;28;20095;-54
2022/05/14 08:07:18;;;;;;;16.27;13.88;;;;;;;15.32;75.64;93539.69;5091410;28;20024;-55
2022/05/14 08:09:44;;;;;;;15.75;13.02;;;;;;;15.45;74.86;93542.88;5091147;28;20563;-51
2022/05/14 08:12:11;;;;;;;13.57;12.18;;;;;;;15.70;75.34;93510.00;5090968;28;20028;-51
2022/05/14 08:14:39;;;;;;;13.07;10.60;;;;;;;16.37;74.60;93531.72;5091091;28;20020;-50
2022/05/14 08:17:06;;;;;;;12.18;10.90;;;;;;;16.96;72.51;93531.88;5088603;28;20389;-53
2022/05/14 08:19:32;;;;;;;13.40;11.45;;;;;;;17.34;73.67;93534.63;5090957;28;20024;-49
2022/05/14 08:24:41;;;;;;;15.60;11.70;;;;;;;17.26;71.10;93545.19;5070671;28;20051;-52
2022/05/14 08:27:09;;;;;;;14.10;10.85;;;;;;;17.46;72.70;93540.31;5070728;28;20429;-51
2022/05/14 08:29:35;;;;;;;13.02;10.52;;;;;;;17.72;72.22;93550.53;5070802;28;20103;-50
2022/05/14 08:32:02;;;;;;;15.00;10.63;;;;;;;17.75;72.31;93554.94;5070448;28;20138;-50
2022/05/14 08:34:28;;;;;;;11.80;9.77;;;;;;;17.76;71.96;93550.81;5070104;28;20066;-48
2022/05/14 08:36:53;;;;;;;11.30;9.88;;;;;;;17.69;72.17;93548.94;5069524;28;20059;-51
2022/05/14 08:39:19;;;;;;;13.82;12.27;;;;;;;17.58;73.00;93552.38;5070175;28;20028;-50
2022/05/14 08:41:47;;;;;;;14.93;11.35;;;;;;;17.47;71.78;93550.16;5067738;28;20028;-48
2022/05/14 08:44:17;;;;;;;14.65;11.00;;;;;;;17.37;71.87;93543.84;5052336;28;20016;-54
2022/05/14 08:46:43;;;;;;;13.50;11.00;;;;;;;17.13;71.80;93547.75;5070429;28;20121;-49
2022/05/14 08:49:49;;;;;;;14.13;12.60;;;;;;;17.05;73.97;93549.94;5070203;28;20485;-51
2022/05/14 08:52:22;;;;;;;21.48;15.23;;;;;;;16.94;74.82;93548.47;5067011;28;20402;-49
2022/05/14 08:54:48;;;;;;;20.77;15.50;;;;;;;16.91;75.63;93546.88;5067581;28;20029;-49
2022/05/14 08:58:05;;;;;;;23.83;17.35;;;;;;;16.79;76.72;93534.84;5069892;28;20416;-52
2022/05/14 09:00:30;;;;;;;19.30;15.18;;;;;;;16.76;76.32;93529.72;5009205;28;20090;-49
2022/05/14 09:02:56;;;;;;;20.50;12.35;;;;;;;16.75;76.37;93531.75;5069722;28;20436;-50
2022/05/14 09:05:34;;;;;;;19.27;13.10;;;;;;;16.74;75.84;93521.91;5051779;28;20102;-53
2022/05/14 09:08:01;;;;;;;14.75;12.95;;;;;;;16.90;77.07;93536.28;5069640;28;20025;-53
2022/05/14 09:11:05;;;;;;;12.80;11.50;;;;;;;17.45;76.23;93534.00;5067467;28;20035;-50
2022/05/14 09:13:40;;;;;;;15.77;10.30;;;;;;;18.48;74.81;93538.28;5067507;28;20025;-51
2022/05/14 09:16:06;;;;;;;11.25;9.77;;;;;;;20.40;67.37;93532.19;5066900;28;20483;-52
2022/05/14 09:18:34;;;;;;;11.15;10.00;;;;;;;22.32;61.05;93526.03;5068163;28;20187;-54
2022/05/14 09:21:05;;;;;;;12.30;9.77;;;;;;;24.53;56.20;93538.81;5049328;28;20043;-50
2022/05/14 09:23:43;;;;;;;10.27;8.73;;;;;;;25.99;48.35;93538.53;5067399;28;20044;-51
2022/05/14 09:26:23;;;;;;;11.60;9.20;;;;;;;26.64;46.79;93526.81;5066590;28;20082;-48
2022/05/14 09:28:52;;;;;;;9.27;8.30;;;;;;;27.54;45.47;93527.09;5049395;28;20467;-52
2022/05/14 09:31:24;;;;;;;9.38;8.32;;;;;;;28.32;39.53;93533.78;5065174;28;20032;-51
2022/05/14 09:34:26;;;;;;;11.27;8.52;;;;;;;29.20;35.87;93527.03;5067049;28;20036;-52
2022/05/14 09:36:51;;;;;;;11.40;8.02;;;;;;;30.34;35.28;93534.09;5047945;28;20040;-52
2022/05/14 09:39:20;;;;;;;14.05;10.00;;;;;;;30.86;37.05;93532.34;5050754;28;20086;-52
2022/05/14 09:41:49;;;;;;;;;;;;;;;30.49;37.42;93530.84;5066728;28;20042;-51
2022/05/14 09:44:21;;;;;;;14.50;7.75;;;;;;;30.80;37.90;93540.72;5070531;28;19912;-52
2022/05/14 09:46:47;;;;;;;6.88;6.20;;;;;;;29.60;37.18;93536.59;5051017;28;20661;-51
2022/05/14 10:01:55;;;;;;;6.15;4.38;;;;;;;31.15;33.23;93530.75;5128498;27;20626;-53
2022/05/14 10:04:28;;;;;;;5.07;4.57;;;;;;;30.28;35.36;93528.22;5127085;28;20416;-52
2022/05/14 10:06:58;;;;;;;5.63;5.00;;;;;;;29.98;38.42;93529.00;5128461;27;20616;-52
2022/05/14 10:09:32;;;;;;;7.70;5.82;;;;;;;29.82;39.73;93536.44;5128266;27;20524;-49
2022/05/14 10:12:15;;;;;;;9.50;5.70;;;;;;;28.52;42.13;93540.75;5127408;28;20035;-53
2022/05/14 10:14:49;;;;;;;9.55;6.32;;;;;;;26.89;44.77;93544.03;5127074;28;20500;-54
2022/05/14 10:17:23;;;;;;;10.18;6.07;;;;;;;25.64;46.73;93547.06;5128229;27;20041;-52
2022/05/14 10:20:06;;;;;;;9.57;6.82;;;;;;;24.43;48.27;93547.56;5128400;27;20509;-55
2022/05/14 10:28:54;;;;;;;7.15;6.55;;;;;;;22.69;53.05;93565.97;5127856;28;20037;-54
2022/05/14 10:31:26;;;;;;;8.25;6.40;;;;;;;22.20;54.94;93565.50;5118644;28;20105;-53
2022/05/14 10:33:55;;;;;;;11.23;6.63;;;;;;;22.15;55.46;93560.28;5107324;28;20028;-53
2022/05/14 10:37:05;;;;;;;7.65;5.30;;;;;;;23.19;53.48;93562.88;5106026;28;20028;-53
2022/05/14 10:39:49;;;;;;;5.70;5.13;;;;;;;24.31;49.67;93560.41;5106647;28;20508;-52
2022/05/14 10:42:26;;;;;;;8.90;5.55;;;;;;;25.16;48.05;93553.53;5126817;28;20100;-49
2022/05/14 10:44:57;;;;;;;5.47;4.97;;;;;;;25.15;46.89;93549.25;5125786;27;20054;-51
2022/05/14 10:47:23;;;;;;;6.22;4.78;;;;;;;25.19;47.59;93550.16;5107128;28;20034;-50
2022/05/14 10:50:04;;;;;;;5.95;4.50;;;;;;;25.22;46.91;93553.78;5105784;28;20099;-50
2022/05/14 10:52:30;;;;;;;6.90;4.40;;;;;;;25.76;45.52;93532.66;5105797;28;20497;-49
2022/05/14 10:54:57;;;;;;;7.40;4.72;;;;;;;25.13;45.46;93541.44;5106978;28;20026;-51
2022/05/14 10:57:27;;;;;;;6.63;4.70;;;;;;;24.73;48.69;93553.81;5105909;28;20031;-53
2022/05/14 10:59:56;;;;;;;4.85;4.25;;;;;;;25.43;47.83;93550.44;5105548;28;20035;-49
2022/05/14 11:02:28;;;;;;;7.53;5.22;;;;;;;26.28;46.61;93554.50;5094295;28;20062;-49
2022/05/14 11:04:54;;;;;;;5.10;4.60;;;;;;;26.77;44.33;93552.09;5093464;28;20027;-51
2022/05/14 11:07:32;;;;;;;4.68;4.20;;;;;;;26.72;43.62;93549.75;5092219;28;20044;-51
2022/05/14 11:10:12;;;;;;;7.68;4.32;;;;;;;26.55;44.89;93542.75;5092866;28;20488;-49
2022/05/14 11:12:38;;;;;;;6.05;4.50;;;;;;;26.37;45.10;93538.53;5092544;28;20517;-51
2022/05/14 11:15:27;;;;;;;8.30;5.15;;;;;;;25.29;45.78;93542.09;5091229;28;20055;-50
2022/05/14 11:18:09;;;;;;;;;;;;;;;25.43;47.82;93539.13;5093770;28;20031;-53
2022/05/14 11:20:35;;;;;;;6.25;5.03;;;;;;;24.41;47.60;93538.28;5095323;28;19975;-51
2022/05/14 11:23:06;;;;;;;9.57;5.43;;;;;;;23.69;50.97;93546.97;5111911;28;20098;-54
2022/05/14 11:25:31;;;;;;;7.75;5.28;;;;;;;23.29;52.07;93551.34;5113225;28;20034;-51
2022/05/14 11:27:59;;;;;;;6.65;6.05;;;;;;;22.92;53.26;93548.09;5111844;28;20027;-50
2022/05/14 11:30:30;;;;;;;16.83;6.13;;;;;;;22.55;53.46;93551.88;5113027;27;20755;-54
2022/05/14 11:32:56;;;;;;;6.78;6.00;;;;;;;22.02;55.82;93544.13;5113272;28;20024;-52
2022/05/14 11:35:22;;;;;;;6.47;5.53;;;;;;;21.47;57.40;93546.75;5112109;28;20015;-53
2022/05/14 11:37:50;;;;;;;12.20;7.03;;;;;;;21.27;59.87;93553.34;5111980;28;20561;-52
2022/05/14 11:40:27;;;;;;;8.35;6.28;;;;;;;21.32;57.79;93543.78;5111523;28;20023;-55
2022/05/14 11:43:23;;;;;;;6.00;5.38;;;;;;;21.27;58.15;93544.91;5111862;28;20023;-54
2022/05/14 11:45:53;;;;;;;5.90;5.30;;;;;;;21.32;58.14;93540.97;5084502;28;20130;-53
2022/05/14 11:48:28;;;;;;;7.13;5.32;;;;;;;21.26;58.30;93540.63;5111722;28;20045;-54
2022/05/14 11:51:02;;;;;;;8.40;6.35;;;;;;;21.40;59.80;93542.16;5109945;28;20020;-54
2022/05/14 11:53:39;;;;;;;7.03;4.90;;;;;;;22.01;56.56;93551.09;5109483;28;20031;-54
2022/05/14 11:56:28;;;;;;;5.57;4.55;;;;;;;22.32;54.47;93543.66;5110780;28;20748;-54
2022/05/14 11:59:00;;;;;;;6.72;4.45;;;;;;;22.78;53.84;93550.22;5097750;28;20059;-50
2022/05/14 12:01:30;;;;;;;7.43;4.60;;;;;;;22.47;52.17;93531.78;5090794;28;20044;-53
2022/05/14 12:03:59;;;;;;;7.60;5.28;;;;;;;22.33;52.99;93530.28;5090888;28;20035;-54
2022/05/14 12:06:50;;;;;;;3.72;3.42;;;;;;;22.13;51.20;93535.63;5092344;28;20567;-56
2022/05/14 12:09:40;;;;;;;7.72;4.05;;;;;;;21.71;53.30;93524.88;5091864;28;20016;-52
2022/05/14 12:12:38;;;;;;;4.07;3.72;;;;;;;21.78;51.59;93535.09;5091472;28;20532;-53
2022/05/14 12:15:11;;;;;;;4.38;3.45;;;;;;;22.22;51.59;93517.78;5075319;28;20600;-54
2022/05/14 12:17:37;;;;;;;5.32;3.45;;;;;;;22.64;50.74;93524.91;5090582;28;20077;-54
2022/05/14 12:20:04;;;;;;;5.32;3.70;;;;;;;22.62;51.31;93516.34;5092079;28;20044;-53
2022/05/14 12:22:30;;;;;;;6.05;3.70;;;;;;;22.88;50.94;93520.50;5111584;28;20160;-48
2022/05/14 12:25:00;;;;;;;3.75;3.25;;;;;;;22.74;51.13;93519.06;5112040;28;20401;-57
2022/05/14 12:27:28;;;;;;;3.58;3.25;;;;;;;22.83;50.73;93516.00;5112255;28;20511;-56
2022/05/14 12:30:00;;;;;;;4.03;3.40;;;;;;;23.13;48.61;93509.03;5112185;28;20038;-54
2022/05/14 12:35:16;;;;;;;4.03;2.90;;;;;;;22.96;48.52;93503.97;5112060;28;20538;-50
2022/05/14 12:37:42;;;;;;;4.82;3.70;;;;;;;22.98;51.85;93500.53;5112075;28;20036;-56
2022/05/14 12:40:18;;;;;;;3.60;3.10;;;;;;;23.06;46.06;93498.13;5111939;28;20549;-49
2022/05/14 12:42:43;;;;;;;5.40;3.63;;;;;;;23.08;46.78;93492.59;5110877;28;20027;-55
2022/05/14 12:45:10;;;;;;;4.25;3.55;;;;;;;22.93;46.73;93485.56;5110650;28;20027;-50
2022/05/14 12:47:39;;;;;;;6.78;3.60;;;;;;;22.93;49.50;93490.44;5111843;28;20489;-54